createdAt,value
2022-12-08T00:00:05.706Z,3.72
2022-12-08T00:02:58.576Z,3.50
2022-12-08T00:05:44.057Z,3.51
2022-12-08T00:08:29.111Z,3.46
2022-12-08T00:10:55.581Z,3.57
2022-12-08T00:13:22.067Z,3.74
2022-12-08T00:15:48.814Z,3.75
2022-12-08T00:18:15.654Z,3.73
2022-12-08T00:20:42.292Z,3.80
2022-12-08T00:23:08.843Z,3.81
2022-12-08T00:25:36.513Z,3.88
2022-12-08T00:28:03.430Z,3.91
2022-12-08T00:30:30.135Z,3.96
2022-12-08T00:32:56.712Z,3.85
2022-12-08T00:35:23.342Z,3.63
2022-12-08T00:37:50.044Z,3.20
2022-12-08T00:40:16.747Z,2.85
2022-12-08T00:42:43.433Z,2.70
2022-12-08T00:45:10.361Z,2.48
2022-12-08T00:47:37.232Z,2.46
2022-12-08T00:50:04.353Z,2.56
2022-12-08T00:52:31.172Z,2.70
2022-12-08T00:54:57.691Z,2.86
2022-12-08T00:57:24.432Z,2.96
2022-12-08T00:59:51.039Z,3.05
2022-12-08T01:02:17.777Z,3.24
2022-12-08T01:04:44.451Z,3.08
2022-12-08T01:07:11.045Z,2.98
2022-12-08T01:09:37.675Z,2.88
2022-12-08T01:12:05.445Z,2.86
2022-12-08T01:14:32.028Z,3.08
2022-12-08T01:16:58.628Z,2.96
2022-12-08T01:19:25.416Z,2.93
2022-12-08T01:21:52.138Z,2.69
2022-12-08T01:24:20.271Z,2.53
2022-12-08T01:26:47.728Z,2.24
2022-12-08T01:29:14.564Z,2.69
2022-12-08T01:31:41.416Z,3.27
2022-12-08T01:34:09.384Z,3.78
2022-12-08T01:36:38.717Z,3.96
2022-12-08T01:39:07.256Z,3.64
2022-12-08T01:41:35.223Z,3.16
2022-12-08T01:44:04.008Z,2.78
2022-12-08T01:46:32.335Z,2.83
2022-12-08T01:49:08.137Z,2.95
2022-12-08T01:51:37.517Z,2.72
2022-12-08T01:54:06.120Z,2.37
2022-12-08T01:56:40.712Z,2.36
2022-12-08T01:59:09.091Z,2.56
2022-12-08T02:01:35.727Z,2.71
2022-12-08T02:04:03.734Z,2.88
2022-12-08T02:06:33.105Z,2.95
2022-12-08T02:09:00.749Z,2.98
2022-12-08T02:11:27.283Z,3.08
2022-12-08T02:13:54.746Z,3.24
2022-12-08T02:16:41.543Z,3.34
2022-12-08T02:19:32.010Z,3.31
2022-12-08T02:22:11.079Z,3.43
2022-12-08T02:24:47.723Z,3.58
2022-12-08T02:27:32.270Z,3.47
2022-12-08T02:30:21.710Z,3.14
2022-12-08T02:33:06.995Z,2.83
2022-12-08T02:35:36.187Z,2.86
2022-12-08T02:38:09.334Z,2.82
2022-12-08T02:40:38.887Z,2.71
2022-12-08T02:43:13.710Z,2.84
2022-12-08T02:45:59.112Z,2.56
2022-12-08T02:48:27.104Z,2.37
2022-12-08T02:50:53.889Z,2.40
2022-12-08T02:53:20.640Z,2.69
2022-12-08T02:55:59.861Z,2.84
2022-12-08T02:58:41.552Z,2.68
2022-12-08T03:01:19.926Z,2.59
2022-12-08T03:03:46.729Z,2.89
2022-12-08T03:06:46.349Z,3.20
2022-12-08T03:09:29.841Z,3.09
2022-12-08T03:12:02.559Z,3.35
2022-12-08T03:14:30.379Z,3.29
2022-12-08T03:16:58.007Z,2.81
2022-12-08T03:19:30.515Z,2.84
2022-12-08T03:22:02.375Z,3.04
2022-12-08T03:24:31.887Z,3.26
2022-12-08T03:27:01.589Z,3.05
2022-12-08T03:29:28.945Z,3.04
2022-12-08T03:31:57.420Z,3.29
2022-12-08T03:34:26.384Z,3.59
2022-12-08T03:36:53.105Z,3.81
2022-12-08T03:39:20.306Z,3.87
2022-12-08T03:41:46.851Z,3.84
2022-12-08T03:44:13.677Z,3.89
2022-12-08T03:46:40.821Z,3.81
2022-12-08T03:49:07.666Z,3.81
2022-12-08T03:51:34.318Z,3.84
2022-12-08T03:54:00.826Z,3.82
2022-12-08T03:56:30.076Z,3.80
2022-12-08T03:58:56.749Z,3.56
2022-12-08T04:01:23.692Z,3.42
2022-12-08T04:03:50.783Z,3.46
2022-12-08T04:06:17.689Z,3.47
2022-12-08T04:08:44.445Z,2.89
2022-12-08T04:11:11.710Z,2.70
2022-12-08T04:13:39.369Z,2.58
2022-12-08T04:16:06.242Z,2.59
2022-12-08T04:18:33.597Z,2.14
2022-12-08T04:21:00.301Z,2.13
2022-12-08T04:23:26.902Z,2.54
2022-12-08T04:25:53.466Z,2.84
2022-12-08T04:28:21.188Z,2.99
2022-12-08T04:30:48.376Z,3.12
2022-12-08T04:33:15.147Z,3.28
2022-12-08T04:35:42.053Z,3.50
2022-12-08T04:38:08.542Z,3.70
2022-12-08T04:40:35.301Z,3.77
2022-12-08T04:43:02.068Z,3.75
2022-12-08T04:45:28.786Z,3.68
2022-12-08T04:47:55.439Z,3.66
2022-12-08T04:50:22.234Z,3.70
2022-12-08T04:52:48.818Z,3.74
2022-12-08T04:55:15.686Z,3.72
2022-12-08T04:57:42.240Z,3.70
2022-12-08T05:00:09.478Z,3.71
2022-12-08T05:02:36.961Z,3.50
2022-12-08T05:05:04.086Z,3.59
2022-12-08T05:07:30.892Z,3.68
2022-12-08T05:09:57.369Z,3.59
2022-12-08T05:12:23.967Z,3.52
2022-12-08T05:14:50.594Z,3.58
2022-12-08T05:17:17.902Z,3.62
2022-12-08T05:19:44.408Z,3.63
2022-12-08T05:22:11.018Z,3.63
2022-12-08T05:24:41.307Z,3.72
2022-12-08T05:27:11.071Z,3.72
2022-12-08T05:29:37.580Z,3.69
2022-12-08T05:32:04.393Z,3.59
2022-12-08T05:34:30.958Z,3.59
2022-12-08T05:36:57.541Z,3.25
2022-12-08T05:39:24.307Z,3.25
2022-12-08T05:41:51.068Z,3.37
2022-12-08T05:44:17.562Z,3.31
2022-12-08T05:46:44.520Z,2.98
2022-12-08T05:49:10.979Z,2.75
2022-12-08T05:51:37.616Z,2.59
2022-12-08T05:54:04.294Z,2.70
2022-12-08T05:56:30.993Z,2.97
2022-12-08T05:58:57.586Z,3.11
2022-12-08T06:01:25.710Z,3.14
2022-12-08T06:03:53.192Z,3.16
2022-12-08T06:06:19.893Z,3.10
2022-12-08T06:08:46.957Z,3.10
2022-12-08T06:11:21.321Z,2.54
2022-12-08T06:13:48.310Z,2.41
2022-12-08T06:16:15.028Z,2.67
2022-12-08T06:18:41.623Z,2.82
2022-12-08T06:21:09.630Z,3.03
2022-12-08T06:23:36.282Z,3.20
2022-12-08T06:26:04.457Z,3.27
2022-12-08T06:28:31.648Z,3.42
2022-12-08T06:30:58.357Z,3.51
2022-12-08T06:33:25.298Z,3.51
2022-12-08T06:35:52.184Z,3.55
2022-12-08T06:38:18.867Z,3.68
2022-12-08T06:40:52.132Z,3.68
2022-12-08T06:43:18.646Z,3.80
2022-12-08T06:45:45.252Z,3.96
2022-12-08T06:48:11.834Z,4.11
2022-12-08T06:50:39.449Z,4.24
2022-12-08T06:53:09.119Z,4.36
2022-12-08T06:55:58.754Z,4.36
2022-12-08T06:58:22.987Z,4.45
2022-12-08T07:00:49.952Z,4.47
2022-12-08T07:03:17.990Z,4.74
2022-12-08T07:05:45.426Z,4.80
2022-12-08T07:08:12.415Z,4.80
2022-12-08T07:10:39.243Z,4.74
2022-12-08T07:13:10.205Z,4.76
2022-12-08T07:15:37.041Z,4.81
2022-12-08T07:18:03.564Z,5.06
2022-12-08T07:20:30.293Z,5.13
2022-12-08T07:22:57.337Z,5.28
2022-12-08T07:25:23.979Z,5.38
2022-12-08T07:27:52.594Z,5.45
2022-12-08T07:30:19.617Z,5.28
2022-12-08T07:32:46.345Z,5.16
2022-12-08T07:35:14.592Z,5.22
2022-12-08T07:37:41.567Z,5.38
2022-12-08T07:40:08.729Z,5.37
2022-12-08T07:42:35.708Z,5.40
2022-12-08T07:45:02.534Z,5.52
2022-12-08T07:47:29.357Z,5.68
2022-12-08T07:49:56.073Z,5.85
2022-12-08T07:52:23.020Z,6.09
2022-12-08T07:54:49.570Z,6.25
2022-12-08T07:57:16.707Z,6.43
2022-12-08T07:59:43.661Z,6.32
2022-12-08T08:02:25.994Z,6.27
2022-12-08T08:04:53.052Z,6.34
2022-12-08T08:07:19.941Z,6.15
2022-12-08T08:09:46.667Z,6.04
2022-12-08T08:12:30.697Z,6.16
2022-12-08T08:14:59.673Z,6.22
2022-12-08T08:17:26.476Z,6.11
2022-12-08T08:19:53.703Z,6.00
2022-12-08T08:22:20.355Z,6.04
2022-12-08T08:24:47.296Z,6.13
2022-12-08T08:27:14.022Z,6.26
2022-12-08T08:29:40.540Z,6.34
2022-12-08T08:32:07.269Z,6.57
2022-12-08T08:34:34.137Z,6.74
2022-12-08T08:37:00.964Z,6.70
2022-12-08T08:39:29.532Z,6.78
2022-12-08T08:41:57.166Z,6.82
2022-12-08T08:44:24.087Z,6.64
2022-12-08T08:46:51.277Z,6.70
2022-12-08T08:49:18.260Z,6.81
2022-12-08T08:51:46.232Z,6.98
2022-12-08T08:54:12.950Z,7.24
2022-12-08T08:56:39.456Z,7.31
2022-12-08T08:59:06.375Z,7.58
2022-12-08T09:01:33.393Z,7.85
2022-12-08T09:04:00.862Z,8.22
2022-12-08T09:06:30.762Z,8.50
2022-12-08T09:08:57.577Z,8.30
2022-12-08T09:11:24.364Z,8.03
2022-12-08T09:13:51.735Z,7.40
2022-12-08T09:16:18.972Z,6.99
2022-12-08T09:18:45.990Z,6.95
2022-12-08T09:21:15.984Z,6.93
2022-12-08T09:23:43.560Z,6.90
2022-12-08T09:26:10.198Z,6.72
2022-12-08T09:28:37.443Z,6.87
2022-12-08T09:31:04.140Z,7.21
2022-12-08T09:33:31.142Z,7.57
2022-12-08T09:36:01.194Z,7.88
2022-12-08T09:38:27.744Z,7.94
2022-12-08T09:40:54.432Z,7.82
2022-12-08T09:43:33.289Z,7.83
2022-12-08T09:46:01.675Z,7.74
2022-12-08T09:48:41.361Z,7.75
2022-12-08T09:51:08.943Z,7.62
2022-12-08T09:53:36.341Z,7.63
2022-12-08T09:56:08.186Z,7.62
2022-12-08T09:58:44.915Z,7.67
2022-12-08T10:01:11.966Z,7.69
2022-12-08T10:03:40.036Z,7.56
2022-12-08T10:06:06.767Z,7.73
2022-12-08T10:08:39.818Z,7.80
2022-12-08T10:11:11.754Z,7.91
2022-12-08T10:13:46.183Z,7.94
2022-12-08T10:16:29.728Z,7.89
2022-12-08T10:19:01.524Z,7.76
2022-12-08T10:21:29.618Z,7.83
2022-12-08T10:24:00.244Z,7.88
2022-12-08T10:26:27.556Z,8.01
2022-12-08T10:29:00.773Z,8.19
2022-12-08T10:31:29.166Z,8.52
2022-12-08T10:34:00.347Z,8.67
2022-12-08T10:36:46.723Z,8.76
2022-12-08T10:39:32.598Z,8.88
2022-12-08T10:42:08.053Z,8.98
2022-12-08T10:44:52.857Z,9.23
2022-12-08T10:47:24.179Z,9.33
2022-12-08T10:50:08.357Z,9.46
2022-12-08T10:52:38.966Z,9.47
2022-12-08T10:55:16.421Z,9.54
2022-12-08T10:57:43.001Z,9.35
2022-12-08T11:00:14.853Z,9.27
2022-12-08T11:03:01.393Z,9.14
2022-12-08T11:05:35.156Z,9.25
2022-12-08T11:08:02.478Z,9.31
2022-12-08T11:10:33.761Z,9.35
2022-12-08T11:13:01.854Z,9.60
2022-12-08T11:15:32.906Z,9.77
2022-12-08T11:18:05.692Z,9.72
2022-12-08T11:20:40.147Z,9.64
2022-12-08T11:23:18.547Z,9.71
2022-12-08T11:25:46.420Z,9.80
2022-12-08T11:28:12.953Z,9.68
2022-12-08T11:30:47.171Z,9.64
2022-12-08T11:33:17.049Z,9.62
2022-12-08T11:35:45.275Z,9.47
2022-12-08T11:38:21.688Z,9.39
2022-12-08T11:40:52.718Z,9.30
2022-12-08T11:43:35.347Z,9.09
2022-12-08T11:46:02.287Z,8.89
2022-12-08T11:48:33.632Z,8.83
2022-12-08T11:51:03.443Z,8.78
2022-12-08T11:53:30.119Z,8.55
2022-12-08T11:55:57.943Z,8.11
2022-12-08T11:58:28.704Z,7.94
2022-12-08T12:00:56.008Z,7.99
2022-12-08T12:03:38.688Z,7.85
2022-12-08T12:06:23.871Z,7.61
2022-12-08T12:08:56.972Z,7.49
2022-12-08T12:11:56.397Z,7.36
2022-12-08T12:14:32.011Z,7.26
2022-12-08T12:17:03.209Z,7.26
2022-12-08T12:19:34.918Z,7.14
2022-12-08T12:22:21.669Z,7.09
2022-12-08T12:24:49.878Z,7.13
2022-12-08T12:27:27.595Z,7.23
2022-12-08T12:29:58.364Z,7.29
2022-12-08T12:32:26.617Z,7.40
2022-12-08T12:34:58.460Z,7.34
2022-12-08T12:37:34.565Z,7.26
2022-12-08T12:40:02.973Z,7.22
2022-12-08T12:42:42.364Z,7.20
2022-12-08T12:45:19.397Z,7.21
2022-12-08T12:47:55.875Z,7.21
2022-12-08T12:50:33.018Z,7.25
2022-12-08T12:53:02.465Z,7.33
2022-12-08T12:55:47.880Z,7.42
2022-12-08T12:58:30.679Z,7.42
2022-12-08T13:01:09.858Z,7.32
2022-12-08T13:03:59.690Z,7.22
2022-12-08T13:06:36.486Z,7.14
2022-12-08T13:09:03.495Z,7.08
2022-12-08T13:11:47.775Z,6.99
2022-12-08T13:14:27.016Z,6.93
2022-12-08T13:16:55.670Z,7.00
2022-12-08T13:19:22.333Z,6.85
2022-12-08T13:21:48.904Z,6.78
2022-12-08T13:24:17.246Z,6.91
2022-12-08T13:26:44.394Z,6.96
2022-12-08T13:29:21.884Z,6.98
2022-12-08T13:31:53.378Z,7.00
2022-12-08T13:34:33.971Z,7.07
2022-12-08T13:37:13.228Z,7.09
2022-12-08T13:39:39.873Z,6.89
2022-12-08T13:42:18.790Z,6.85
2022-12-08T13:45:19.735Z,6.83
2022-12-08T13:48:29.046Z,6.84
2022-12-08T13:59:19.007Z,7.02
2022-12-08T14:01:48.145Z,7.05
2022-12-08T14:04:47.484Z,7.03
2022-12-08T14:07:09.040Z,6.86
2022-12-08T14:09:36.964Z,6.85
2022-12-08T14:12:06.337Z,6.90
2022-12-08T14:17:22.907Z,6.81
2022-12-08T14:20:00.399Z,6.71
2022-12-08T14:22:34.391Z,6.64
2022-12-08T14:25:02.402Z,6.50
2022-12-08T14:27:33.043Z,6.52
2022-12-08T14:30:01.281Z,6.48
2022-12-08T14:32:32.737Z,6.55
2022-12-08T14:35:06.031Z,6.47
2022-12-08T14:37:34.501Z,6.23
2022-12-08T14:40:24.166Z,5.93
2022-12-08T14:43:05.461Z,5.88
2022-12-08T14:45:35.501Z,6.08
2022-12-08T14:48:20.451Z,6.26
2022-12-08T14:50:52.999Z,6.42
2022-12-08T14:53:19.653Z,6.51
2022-12-08T14:55:47.840Z,6.53
2022-12-08T14:58:20.090Z,6.46
2022-12-08T15:00:48.370Z,6.35
2022-12-08T15:03:16.849Z,6.29
2022-12-08T15:05:43.678Z,6.12
2022-12-08T15:08:12.472Z,6.04
2022-12-08T15:10:39.523Z,6.02
2022-12-08T15:13:07.941Z,5.98
2022-12-08T15:15:49.737Z,5.94
2022-12-08T15:18:19.338Z,6.00
2022-12-08T15:20:55.093Z,6.12
2022-12-08T15:23:21.890Z,6.21
2022-12-08T15:25:48.905Z,6.24
2022-12-08T15:28:19.814Z,6.38
2022-12-08T15:30:47.125Z,6.29
2022-12-08T15:33:14.179Z,6.22
2022-12-08T15:35:41.390Z,6.22
2022-12-08T15:38:16.154Z,6.29
2022-12-08T15:40:42.676Z,6.36
2022-12-08T15:43:10.452Z,6.46
2022-12-08T15:45:37.289Z,6.57
2022-12-08T15:48:04.252Z,6.57
2022-12-08T15:50:30.792Z,6.57
2022-12-08T15:52:57.399Z,6.65
2022-12-08T15:55:23.947Z,6.70
2022-12-08T16:00:55.090Z,6.61
2022-12-08T16:09:12.536Z,6.92
2022-12-08T16:12:08.316Z,6.96
2022-12-08T16:17:23.986Z,6.93
2022-12-08T16:19:50.878Z,7.08
2022-12-08T16:25:22.325Z,7.19
2022-12-08T16:28:01.228Z,7.31
2022-12-08T16:30:32.530Z,7.37
2022-12-08T16:32:59.178Z,7.43
2022-12-08T16:35:25.753Z,7.54
2022-12-08T16:37:52.398Z,7.62
2022-12-08T16:40:19.182Z,7.76
2022-12-08T16:42:47.833Z,7.81
2022-12-08T16:45:14.738Z,7.70
2022-12-08T16:47:42.759Z,7.56
2022-12-08T16:50:11.471Z,7.49
2022-12-08T16:52:38.295Z,7.29
2022-12-08T16:55:09.398Z,7.25
2022-12-08T16:57:35.979Z,7.33
2022-12-08T17:00:04.605Z,7.31
2022-12-08T17:02:31.360Z,7.46
2022-12-08T17:04:58.496Z,7.54
2022-12-08T17:07:25.215Z,7.57
2022-12-08T17:09:51.751Z,7.82
2022-12-08T17:12:18.287Z,7.93
2022-12-08T17:14:44.820Z,8.13
2022-12-08T17:17:11.601Z,8.15
2022-12-08T17:19:40.655Z,7.98
2022-12-08T17:22:07.313Z,7.96
2022-12-08T17:24:34.133Z,7.83
2022-12-08T17:27:03.684Z,7.80
2022-12-08T17:29:31.301Z,7.69
2022-12-08T17:31:58.453Z,7.54
2022-12-08T17:34:25.290Z,7.57
2022-12-08T17:36:52.013Z,7.61
2022-12-08T17:39:19.302Z,7.65
2022-12-08T17:41:46.325Z,7.55
2022-12-08T17:44:14.906Z,7.42
2022-12-08T17:46:45.258Z,7.40
2022-12-08T17:49:20.190Z,7.47
2022-12-08T17:51:47.516Z,7.52
2022-12-08T17:54:14.649Z,7.56
2022-12-08T17:56:41.604Z,7.54
2022-12-08T17:59:08.452Z,7.45
2022-12-08T18:01:35.100Z,7.37
2022-12-08T18:04:02.516Z,7.28
2022-12-08T18:06:31.286Z,7.23
2022-12-08T18:08:59.044Z,7.25
2022-12-08T18:11:26.710Z,7.20
2022-12-08T18:13:54.272Z,7.18
2022-12-08T18:16:22.241Z,7.08
2022-12-08T18:18:49.333Z,7.09
2022-12-08T18:21:22.876Z,7.15
2022-12-08T18:23:50.317Z,7.23
2022-12-08T18:26:16.955Z,7.20
2022-12-08T18:28:43.699Z,7.21
2022-12-08T18:31:15.359Z,7.13
2022-12-08T18:33:42.694Z,7.11
2022-12-08T18:36:10.823Z,7.08
2022-12-08T18:38:37.724Z,6.97
2022-12-08T18:41:08.685Z,6.90
2022-12-08T18:43:36.025Z,6.87
2022-12-08T18:46:04.022Z,6.86
2022-12-08T18:48:30.713Z,6.87
2022-12-08T18:50:57.337Z,6.90
2022-12-08T18:53:24.251Z,6.89
2022-12-08T18:55:50.790Z,6.81
2022-12-08T18:58:18.152Z,6.77
2022-12-08T19:00:45.069Z,6.65
2022-12-08T19:03:11.684Z,6.63
2022-12-08T19:05:38.300Z,6.55
2022-12-08T19:08:05.559Z,6.47
2022-12-08T19:10:39.084Z,6.45
2022-12-08T19:13:05.923Z,6.36
2022-12-08T19:15:33.729Z,6.30
2022-12-08T19:18:00.966Z,6.23
2022-12-08T19:20:27.688Z,6.06
2022-12-08T19:22:54.676Z,5.91
2022-12-08T19:25:21.522Z,5.80
2022-12-08T19:27:48.253Z,5.72
2022-12-08T19:30:15.289Z,5.69
2022-12-08T19:32:42.093Z,5.74
2022-12-08T19:35:16.331Z,5.81
2022-12-08T19:37:42.966Z,5.91
2022-12-08T19:40:30.630Z,5.98
2022-12-08T19:43:23.586Z,5.93
2022-12-08T19:45:50.287Z,5.95
2022-12-08T19:48:16.967Z,6.04
2022-12-08T19:50:43.596Z,6.12
2022-12-08T19:53:11.948Z,6.22
2022-12-08T19:55:38.782Z,6.33
2022-12-08T19:58:05.756Z,6.46
2022-12-08T20:00:33.004Z,6.52
2022-12-08T20:03:01.177Z,6.54
2022-12-08T20:05:29.125Z,6.52
2022-12-08T20:07:56.133Z,6.40
2022-12-08T20:10:27.659Z,6.46
2022-12-08T20:13:15.643Z,6.58
2022-12-08T20:15:42.947Z,6.84
2022-12-08T20:18:10.530Z,7.07
2022-12-08T20:20:38.732Z,7.20
2022-12-08T20:23:05.912Z,7.30
2022-12-08T20:25:32.944Z,7.25
2022-12-08T20:27:59.671Z,7.10
2022-12-08T20:30:26.425Z,6.93
2022-12-08T20:32:53.181Z,6.64
2022-12-08T20:35:20.093Z,6.48
2022-12-08T20:37:46.685Z,6.51
2022-12-08T20:40:13.443Z,6.51
2022-12-08T20:42:39.990Z,6.49
2022-12-08T20:45:09.009Z,6.71
2022-12-08T20:47:36.341Z,6.91
2022-12-08T20:50:04.493Z,7.09
2022-12-08T20:52:31.929Z,7.17
2022-12-08T20:54:58.872Z,7.20
2022-12-08T20:57:26.002Z,6.95
2022-12-08T20:59:53.662Z,6.67
2022-12-08T21:02:20.356Z,6.47
2022-12-08T21:04:47.408Z,6.43
2022-12-08T21:07:14.195Z,6.54
2022-12-08T21:09:41.173Z,6.64
2022-12-08T21:12:08.208Z,6.78
2022-12-08T21:14:35.116Z,6.89
2022-12-08T21:17:02.338Z,6.86
2022-12-08T21:19:29.239Z,6.75
2022-12-08T21:21:56.076Z,6.75
2022-12-08T21:24:23.130Z,6.70
2022-12-08T21:26:50.156Z,6.77
2022-12-08T21:29:16.688Z,6.77
2022-12-08T21:31:43.357Z,6.67
2022-12-08T21:34:10.830Z,6.60
2022-12-08T21:36:37.601Z,6.51
2022-12-08T21:39:10.588Z,6.43
2022-12-08T21:41:56.666Z,6.41
2022-12-08T21:44:23.801Z,6.34
2022-12-08T21:46:50.383Z,6.20
2022-12-08T21:49:17.083Z,6.04
2022-12-08T21:51:43.837Z,5.94
2022-12-08T21:54:16.714Z,5.91
2022-12-08T21:56:46.901Z,5.89
2022-12-08T21:59:13.487Z,5.93
2022-12-08T22:01:42.782Z,6.08
2022-12-08T22:04:11.606Z,6.19
2022-12-08T22:06:38.564Z,6.21
2022-12-08T22:09:06.663Z,6.30
2022-12-08T22:11:33.377Z,6.40
2022-12-08T22:14:00.017Z,6.36
2022-12-08T22:16:28.111Z,6.26
2022-12-08T22:18:55.191Z,6.14
2022-12-08T22:21:22.007Z,6.16
2022-12-08T22:23:48.992Z,6.14
2022-12-08T22:26:15.601Z,6.16
2022-12-08T22:28:42.866Z,6.11
2022-12-08T22:31:10.953Z,6.18
2022-12-08T22:33:38.494Z,6.19
2022-12-08T22:36:10.731Z,6.27
2022-12-08T22:38:37.864Z,6.40
2022-12-08T22:41:05.160Z,6.59
2022-12-08T22:43:32.616Z,6.68
2022-12-08T22:45:59.437Z,6.84
2022-12-08T22:48:26.249Z,7.05
2022-12-08T22:50:57.811Z,7.01
2022-12-08T22:53:24.304Z,6.91
2022-12-08T22:55:51.342Z,6.73
2022-12-08T22:58:18.199Z,6.69
2022-12-08T23:00:44.968Z,6.64
2022-12-08T23:03:11.717Z,6.59
2022-12-08T23:05:39.256Z,6.71
2022-12-08T23:08:07.651Z,6.75
2022-12-08T23:10:34.958Z,6.67
2022-12-08T23:13:03.905Z,6.63
2022-12-08T23:15:31.172Z,6.58
2022-12-08T23:17:57.819Z,6.53
2022-12-08T23:20:25.221Z,6.40
2022-12-08T23:22:52.521Z,6.26
2022-12-08T23:25:19.517Z,6.19
2022-12-08T23:27:46.150Z,6.16
2022-12-08T23:30:13.221Z,6.05
2022-12-08T23:32:40.132Z,5.98
2022-12-08T23:35:07.205Z,5.92
2022-12-08T23:37:34.156Z,5.84
2022-12-08T23:40:00.997Z,5.88
2022-12-08T23:42:29.553Z,5.90
2022-12-08T23:44:56.727Z,5.89
2022-12-08T23:47:23.496Z,5.89
2022-12-08T23:49:50.400Z,5.90
2022-12-08T23:52:17.048Z,5.85
2022-12-08T23:54:44.421Z,5.82
2022-12-08T23:57:11.230Z,5.76
2022-12-08T23:59:38.201Z,5.75
